Time;durP1;ratioP1;P1;durP2;ratioP2;P2;SDS_P1;SDS_P2;PMS_P1;PMS_P2;Temp;Humidity;BMP_temperature;BMP_pressure;BME280_temperature;BME280_humidity;BME280_pressure;Samples;Min_cycle;Max_cycle;Signal;HPM_P1;HPM_P2
2024/02/10 00:02:06;;;;;;;;;;;9.10;99.90;;;;;;5075003;28;20482;-66
2024/02/10 00:04:32;;;;;;;1.98;0.93;;;9.10;99.90;;;;;;5081631;28;19920;-65
2024/02/10 00:06:59;;;;;;;2.40;1.08;;;9.10;99.90;;;;;;5077399;28;20107;-66
2024/02/10 00:09:24;;;;;;;2.55;0.80;;;9.10;99.90;;;;;;5080897;28;20394;-67
2024/02/10 00:11:50;;;;;;;;;;;9.10;99.90;;;;;;5076795;28;20032;-67
2024/02/10 00:14:20;;;;;;;1.40;0.80;;;9.00;99.90;;;;;;5080618;28;20486;-66
2024/02/10 00:16:45;;;;;;;1.55;0.70;;;9.00;99.90;;;;;;5073316;28;20051;-66
2024/02/10 00:19:11;;;;;;;;;;;9.10;99.90;;;;;;5058637;28;20045;-66
2024/02/10 00:21:37;;;;;;;4.80;0.90;;;9.10;99.90;;;;;;5060694;28;20162;-66
2024/02/10 00:24:04;;;;;;;1.45;0.45;;;9.10;99.90;;;;;;5061606;28;20653;-66
2024/02/10 00:26:31;;;;;;;1.02;0.70;;;9.00;99.90;;;;;;5051085;28;20083;-65
2024/02/10 00:28:57;;;;;;;3.15;0.57;;;9.00;99.90;;;;;;5061670;28;20488;-66
2024/02/10 00:31:25;;;;;;;;;;;9.00;99.90;;;;;;5052157;28;20044;-67
2024/02/10 00:33:51;;;;;;;1.83;0.45;;;9.00;99.90;;;;;;5049486;28;19966;-66
2024/02/10 00:36:19;;;;;;;;;;;9.00;99.90;;;;;;5045812;28;20049;-67
2024/02/10 00:38:47;;;;;;;1.80;0.50;;;9.00;99.90;;;;;;5045112;28;19986;-66
2024/02/10 00:41:13;;;;;;;1.52;0.45;;;8.90;99.90;;;;;;5045173;28;20111;-65
2024/02/10 00:43:44;;;;;;;0.68;0.40;;;8.90;99.90;;;;;;5045614;28;20045;-66
2024/02/10 00:46:10;;;;;;;2.20;0.40;;;8.90;99.90;;;;;;5045620;28;20135;-68
2024/02/10 00:48:39;;;;;;;1.85;0.50;;;8.90;99.90;;;;;;5054336;28;20127;-66
2024/02/10 00:51:05;;;;;;;2.15;0.40;;;8.90;99.90;;;;;;5045604;28;20703;-66
2024/02/10 00:53:40;;;;;;;0.70;0.40;;;8.90;99.90;;;;;;5041252;28;20041;-66
2024/02/10 00:56:10;;;;;;;1.63;0.88;;;8.90;99.90;;;;;;5042245;28;20083;-66
2024/02/10 00:58:40;;;;;;;3.35;0.47;;;8.90;99.90;;;;;;5029278;28;20041;-67
2024/02/10 01:01:12;;;;;;;0.57;0.40;;;8.90;99.90;;;;;;5041223;28;20111;-66
2024/02/10 01:03:45;;;;;;;2.15;0.50;;;8.90;99.90;;;;;;5039258;28;20045;-66
2024/02/10 01:06:12;;;;;;;0.50;0.50;;;8.90;99.90;;;;;;5037856;28;20034;-66
2024/02/10 01:08:42;;;;;;;2.08;0.40;;;8.90;99.90;;;;;;5035529;28;20064;-67
2024/02/10 01:11:11;;;;;;;2.53;0.45;;;8.90;99.90;;;;;;5039845;28;20053;-66
2024/02/10 01:13:37;;;;;;;0.70;0.50;;;8.90;99.90;;;;;;5037553;28;20075;-67
2024/02/10 01:16:03;;;;;;;;;;;8.90;99.90;;;;;;5037803;28;20045;-66
2024/02/10 01:18:28;;;;;;;1.13;0.40;;;8.90;99.90;;;;;;5039890;28;19920;-66
2024/02/10 01:20:54;;;;;;;;;;;8.90;99.90;;;;;;5034650;28;20038;-67
2024/02/10 01:23:19;;;;;;;0.47;0.38;;;8.90;99.90;;;;;;5040057;28;19950;-67
2024/02/10 01:25:45;;;;;;;;;;;8.90;99.90;;;;;;5036641;28;20552;-67
2024/02/10 01:28:11;;;;;;;2.70;0.40;;;8.90;99.90;;;;;;5040127;28;19921;-66
2024/02/10 01:30:36;;;;;;;2.95;0.30;;;8.90;99.90;;;;;;5031230;28;20044;-65
2024/02/10 01:33:02;;;;;;;2.92;0.50;;;8.90;99.90;;;;;;5040943;28;20047;-67
2024/02/10 01:35:28;;;;;;;0.40;0.28;;;8.90;99.90;;;;;;5038457;28;20171;-65
2024/02/10 01:37:55;;;;;;;1.23;0.32;;;8.90;99.90;;;;;;5033885;28;20040;-65
2024/02/10 01:40:21;;;;;;;1.42;0.45;;;8.90;99.90;;;;;;5036835;28;20144;-65
2024/02/10 01:42:46;;;;;;;;;;;8.80;99.90;;;;;;5036588;28;20137;-64
2024/02/10 01:45:13;;;;;;;0.65;0.35;;;8.80;99.90;;;;;;5037059;28;20005;-67
2024/02/10 01:47:43;;;;;;;0.65;0.20;;;8.80;99.90;;;;;;5036410;28;20631;-67
2024/02/10 01:50:10;;;;;;;1.10;0.40;;;8.80;99.90;;;;;;5032878;28;20036;-66
2024/02/10 01:52:36;;;;;;;1.02;0.20;;;8.80;99.90;;;;;;5034330;28;20037;-67
2024/02/10 01:55:06;;;;;;;0.57;0.50;;;8.80;99.90;;;;;;5036916;28;20156;-68
2024/02/10 01:57:33;;;;;;;0.52;0.30;;;8.80;99.90;;;;;;5038797;28;20049;-68
2024/02/10 02:00:01;;;;;;;0.65;0.30;;;8.80;99.90;;;;;;5033859;28;20045;-67
2024/02/10 02:02:30;;;;;;;0.80;0.40;;;8.80;99.90;;;;;;5036419;28;20059;-68
2024/02/10 02:05:02;;;;;;;0.77;0.40;;;8.80;99.90;;;;;;5031454;28;20037;-67
2024/02/10 02:07:30;;;;;;;2.97;0.30;;;8.80;99.90;;;;;;5030114;28;20160;-67
2024/02/10 02:09:57;;;;;;;1.48;0.40;;;8.80;99.90;;;;;;5039894;28;20055;-67
2024/02/10 02:12:23;;;;;;;0.30;0.30;;;8.80;99.90;;;;;;5035847;28;20064;-67
2024/02/10 02:14:48;;;;;;;;;;;8.80;99.90;;;;;;5034883;28;20130;-66
2024/02/10 02:17:14;;;;;;;0.50;0.43;;;8.80;99.90;;;;;;5039858;28;19924;-68
2024/02/10 02:19:42;;;;;;;;;;;8.80;99.90;;;;;;5043982;28;20113;-65
2024/02/10 02:22:09;;;;;;;3.10;0.30;;;8.70;99.90;;;;;;5035142;28;19917;-65
2024/02/10 02:24:35;;;;;;;1.98;0.47;;;8.70;99.90;;;;;;5036915;28;20460;-66
2024/02/10 02:27:02;;;;;;;3.03;0.32;;;8.70;99.90;;;;;;5040673;28;20033;-66
2024/02/10 02:29:28;;;;;;;0.55;0.30;;;8.70;99.90;;;;;;5036418;28;20047;-66
2024/02/10 02:32:00;;;;;;;;;;;8.70;99.90;;;;;;5051068;28;20041;-66
2024/02/10 02:34:33;;;;;;;0.60;0.30;;;8.70;99.90;;;;;;5058927;28;20395;-66
2024/02/10 02:36:59;;;;;;;0.35;0.20;;;8.70;99.90;;;;;;5052222;28;20133;-66
2024/02/10 02:39:25;;;;;;;0.90;0.40;;;8.70;99.90;;;;;;5060002;28;20046;-66
2024/02/10 02:41:51;;;;;;;3.13;0.40;;;8.70;99.90;;;;;;5054867;28;20037;-66
2024/02/10 02:44:17;;;;;;;1.42;0.40;;;8.70;99.90;;;;;;5062452;28;20541;-66
2024/02/10 02:46:43;;;;;;;;;;;8.70;99.90;;;;;;5052239;28;20065;-65
2024/02/10 02:49:09;;;;;;;0.85;0.45;;;8.70;99.90;;;;;;5058249;28;19980;-65
2024/02/10 02:51:35;;;;;;;;;;;8.70;99.90;;;;;;5054822;28;20068;-65
2024/02/10 02:54:01;;;;;;;1.08;0.50;;;8.70;99.90;;;;;;5052629;28;19975;-66
2024/02/10 02:56:27;;;;;;;5.88;0.50;;;8.60;99.90;;;;;;5059011;28;20053;-67
2024/02/10 02:58:55;;;;;;;;;;;8.60;99.90;;;;;;5056628;28;20055;-66
2024/02/10 03:01:22;;;;;;;2.50;0.22;;;8.60;99.90;;;;;;5049927;28;19946;-66
2024/02/10 03:03:50;;;;;;;0.75;0.20;;;8.60;99.90;;;;;;5044653;28;20045;-66
2024/02/10 03:06:20;;;;;;;0.63;0.22;;;8.60;99.90;;;;;;5039343;28;20850;-66
2024/02/10 03:08:47;;;;;;;0.40;0.25;;;8.60;99.90;;;;;;5040494;28;20037;-66
2024/02/10 03:11:17;;;;;;;0.32;0.20;;;8.50;99.90;;;;;;5037697;28;20041;-66
2024/02/10 03:13:44;;;;;;;0.73;0.32;;;8.50;99.90;;;;;;5042753;28;20107;-66
2024/02/10 03:16:10;;;;;;;1.30;0.50;;;8.60;99.90;;;;;;5046098;28;20045;-66
2024/02/10 03:18:38;;;;;;;0.77;0.30;;;8.50;99.90;;;;;;5031768;28;20125;-66
2024/02/10 03:21:04;;;;;;;0.50;0.28;;;8.60;99.90;;;;;;5043114;28;20536;-65
2024/02/10 03:23:31;;;;;;;;;;;8.60;99.90;;;;;;5039448;28;20046;-66
2024/02/10 03:25:59;;;;;;;0.52;0.30;;;8.50;99.90;;;;;;5037515;28;19982;-66
2024/02/10 03:28:24;;;;;;;0.60;0.30;;;8.60;99.90;;;;;;5043437;28;20045;-66
2024/02/10 03:30:50;;;;;;;;;;;8.60;99.90;;;;;;5041231;28;20045;-66
2024/02/10 03:33:15;;;;;;;0.88;0.30;;;8.70;99.90;;;;;;5033511;28;19971;-66
2024/02/10 03:35:41;;;;;;;;;;;8.60;99.90;;;;;;5036640;28;20041;-67
2024/02/10 03:38:07;;;;;;;0.57;0.28;;;8.60;99.90;;;;;;5030897;28;19921;-66
2024/02/10 03:40:33;;;;;;;0.90;0.30;;;8.60;99.90;;;;;;5036454;28;20049;-66
2024/02/10 03:42:59;;;;;;;1.30;0.40;;;8.60;99.90;;;;;;5032886;28;20049;-67
2024/02/10 03:45:25;;;;;;;;;;;8.60;99.90;;;;;;5034142;28;20052;-67
2024/02/10 03:48:05;;;;;;;0.87;0.37;;;8.60;99.90;;;;;;5033173;28;19947;-66
2024/02/10 03:50:32;;;;;;;3.13;0.35;;;8.60;99.90;;;;;;5035582;28;20283;-67
2024/02/10 03:52:58;;;;;;;1.30;0.30;;;8.60;99.90;;;;;;5033582;28;20108;-66
2024/02/10 03:55:23;;;;;;;;;;;8.60;99.90;;;;;;5037475;28;20040;-66
2024/02/10 03:57:53;;;;;;;1.00;0.30;;;8.60;99.90;;;;;;5034888;28;19975;-65
2024/02/10 04:00:25;;;;;;;1.17;0.40;;;8.60;99.90;;;;;;5042440;28;20052;-66
2024/02/10 04:02:51;;;;;;;2.67;0.30;;;8.60;99.90;;;;;;5036090;28;20558;-65
2024/02/10 04:05:16;;;;;;;4.20;0.50;;;8.50;99.90;;;;;;5041624;28;20580;-66
2024/02/10 04:07:49;;;;;;;;;;;8.60;99.90;;;;;;5037886;28;20045;-66
2024/02/10 04:10:16;;;;;;;1.13;0.32;;;8.60;99.90;;;;;;5041109;28;19928;-66
2024/02/10 04:12:42;;;;;;;0.55;0.30;;;8.50;99.90;;;;;;5038374;28;20681;-66
2024/02/10 04:15:12;;;;;;;3.55;0.38;;;8.50;99.90;;;;;;5036376;28;20124;-66
2024/02/10 04:17:48;;;;;;;0.55;0.30;;;8.50;99.90;;;;;;5038220;28;20049;-65
2024/02/10 04:20:18;;;;;;;0.47;0.38;;;8.60;99.90;;;;;;5025833;28;20489;-66
2024/02/10 04:22:45;;;;;;;1.13;0.68;;;8.60;99.90;;;;;;5025681;28;20049;-64
2024/02/10 04:25:12;;;;;;;1.90;0.75;;;8.60;99.90;;;;;;5032084;28;20037;-66
2024/02/10 04:27:38;;;;;;;2.95;0.25;;;8.60;99.90;;;;;;5037052;28;20053;-65
2024/02/10 04:30:04;;;;;;;;;;;8.50;99.90;;;;;;5028929;28;20782;-65
2024/02/10 04:32:33;;;;;;;0.65;0.43;;;8.60;99.90;;;;;;5032240;28;19916;-64
2024/02/10 04:34:59;;;;;;;0.57;0.30;;;8.60;99.90;;;;;;5032081;28;20041;-67
2024/02/10 04:37:24;;;;;;;;;;;8.60;99.90;;;;;;5032864;28;20045;-67
2024/02/10 04:39:50;;;;;;;1.48;0.40;;;8.60;99.90;;;;;;5039333;28;20584;-69
2024/02/10 04:42:16;;;;;;;0.50;0.40;;;8.60;99.90;;;;;;5036897;28;20032;-66
2024/02/10 04:44:48;;;;;;;;;;;8.60;99.90;;;;;;5036916;28;20565;-67
2024/02/10 04:47:15;;;;;;;1.33;0.60;;;8.60;99.90;;;;;;5033700;28;19920;-66
2024/02/10 04:49:41;;;;;;;0.85;0.40;;;8.60;99.90;;;;;;5037232;28;20044;-66
2024/02/10 04:52:06;;;;;;;;;;;8.60;99.90;;;;;;5032386;28;20045;-67
2024/02/10 04:54:32;;;;;;;0.73;0.50;;;8.60;99.90;;;;;;5035568;28;19939;-66
2024/02/10 04:56:58;;;;;;;0.50;0.30;;;8.60;99.90;;;;;;5030916;28;20669;-68
2024/02/10 04:59:27;;;;;;;0.35;0.30;;;8.60;99.90;;;;;;5046172;28;20045;-67
2024/02/10 05:01:54;;;;;;;4.88;0.80;;;8.60;99.90;;;;;;5030140;28;20029;-67
2024/02/10 05:04:22;;;;;;;0.77;0.40;;;8.50;99.90;;;;;;5038746;28;20766;-66
2024/02/10 05:06:48;;;;;;;0.88;0.47;;;8.60;99.90;;;;;;5034925;28;20179;-67
2024/02/10 05:09:14;;;;;;;;;;;8.60;99.90;;;;;;5037734;28;20804;-67
2024/02/10 05:11:41;;;;;;;1.48;0.30;;;8.60;99.90;;;;;;5036745;28;19999;-66
2024/02/10 05:14:10;;;;;;;1.38;0.50;;;8.60;99.90;;;;;;5028015;28;20060;-66
2024/02/10 05:16:37;;;;;;;0.40;0.30;;;8.40;99.90;;;;;;5036704;28;20075;-66
2024/02/10 05:19:02;;;;;;;0.73;0.22;;;8.40;99.90;;;;;;5034603;28;20050;-66
2024/02/10 05:21:28;;;;;;;;;;;;;;;;;;5034082;28;20094;-67
2024/02/10 05:23:55;;;;;;;0.77;0.50;;;;;;;;;;5042867;28;19927;-67
2024/02/10 05:26:21;;;;;;;0.77;0.30;;;;;;;;;;5039266;28;20071;-67
2024/02/10 05:28:47;;;;;;;1.42;0.80;;;;;;;;;;5036958;28;20044;-68
2024/02/10 05:31:14;;;;;;;0.20;0.20;;;;;;;;;;5034170;28;20045;-67
2024/02/10 05:33:45;;;;;;;0.95;0.28;;;;;;;;;;5036673;28;20045;-67
2024/02/10 05:36:11;;;;;;;0.80;0.22;;;;;;;;;;5030129;28;20677;-67
2024/02/10 05:38:43;;;;;;;2.63;0.35;;;;;;;;;;5037169;28;20075;-67
2024/02/10 05:41:18;;;;;;;0.98;0.40;;;;;;;;;;5036029;28;20045;-67
2024/02/10 05:43:45;;;;;;;2.72;0.68;;;;;;;;;;5026217;28;20048;-67
2024/02/10 05:46:13;;;;;;;6.78;0.68;;;;;;;;;;5026358;28;20061;-68
2024/02/10 05:48:39;;;;;;;3.85;0.70;;;;;;;;;;5030748;28;20048;-67
2024/02/10 05:51:05;;;;;;;;;;;;;;;;;;5029578;28;20033;-67
2024/02/10 05:53:31;;;;;;;7.57;1.00;;;;;;;;;;5026564;28;19924;-66
2024/02/10 05:55:57;;;;;;;;;;;;;;;;;;5034646;28;20288;-67
2024/02/10 05:58:23;;;;;;;1.02;0.50;;;;;;;;;;5055561;28;19925;-67
2024/02/10 06:00:52;;;;;;;6.88;0.80;;;;;;;;;;5028402;28;20420;-67
2024/02/10 06:03:18;;;;;;;2.03;0.60;;;;;;;;;;5029663;28;20061;-65
2024/02/10 06:05:44;;;;;;;2.17;1.17;;;;;;;;;;5039122;28;20053;-67
2024/02/10 06:08:12;;;;;;;1.38;0.40;;;;;;;;;;5027058;28;20094;-66
2024/02/10 06:10:38;;;;;;;2.85;1.30;;;;;;;;;;5035014;28;20519;-67
2024/02/10 06:13:04;;;;;;;1.40;1.23;;;;;;;;;;5024916;28;20051;-67
2024/02/10 06:15:30;;;;;;;;;;;;;;;;;;5039764;28;20453;-66
2024/02/10 06:17:56;;;;;;;3.97;1.10;;;;;;;;;;5026784;28;19916;-66
2024/02/10 06:20:23;;;;;;;2.35;1.52;;;;;;;;;;5038004;28;20036;-67
2024/02/10 06:22:50;;;;;;;6.75;1.90;;;;;;;;;;5034884;28;20123;-66
2024/02/10 06:25:22;;;;;;;2.17;1.80;;;;;;;;;;5035839;28;20037;-67
2024/02/10 06:27:48;;;;;;;2.22;1.70;;;;;;;;;;5038916;28;20049;-67
2024/02/10 06:30:16;;;;;;;;;;;;;;;;;;5030962;28;20818;-67
2024/02/10 06:32:43;;;;;;;5.80;1.48;;;;;;;;;;5031362;28;19928;-68
2024/02/10 06:35:10;;;;;;;1.77;1.38;;;;;;;;;;5035241;28;20041;-67
2024/02/10 06:37:39;;;;;;;4.45;1.70;;;;;;;;;;5027472;28;20041;-67
2024/02/10 06:40:09;;;;;;;1.27;1.17;;;;;;;;;;5036338;28;20124;-67
2024/02/10 06:42:38;;;;;;;2.10;1.52;;;;;;;;;;5039312;28;20032;-67
2024/02/10 06:45:08;;;;;;;4.05;1.60;;;;;;;;;;5027933;28;20065;-67
2024/02/10 06:47:37;;;;;;;3.22;1.70;;;;;;;;;;5037130;28;20140;-67
2024/02/10 06:50:03;;;;;;;2.08;1.60;;;;;;;;;;5036357;28;20060;-67
2024/02/10 06:52:34;;;;;;;2.67;1.42;;;;;;;;;;5026786;28;20828;-66
2024/02/10 06:55:00;;;;;;;3.65;1.08;;;;;;;;;;5032412;28;20060;-67
2024/02/10 06:57:27;;;;;;;2.40;1.20;;;;;;;;;;5038216;28;20056;-67
2024/02/10 06:59:54;;;;;;;1.45;1.13;;;;;;;;;;5024541;28;20050;-66
2024/02/10 07:02:20;;;;;;;2.55;1.60;;;;;;;;;;5038397;28;20124;-67
2024/02/10 07:04:52;;;;;;;;;;;;;;;;;;5035565;28;20166;-66
2024/02/10 07:07:19;;;;;;;2.72;2.00;;;;;;;;;;5027794;28;19929;-67
2024/02/10 07:09:45;;;;;;;3.78;2.20;;;;;;;;;;5034139;28;20098;-66
2024/02/10 07:12:11;;;;;;;;;;;;;;;;;;5034946;28;20046;-66
2024/02/10 07:14:38;;;;;;;2.80;2.00;;;;;;;;;;5034729;28;20456;-66
2024/02/10 07:17:04;;;;;;;4.55;2.65;;;;;;;;;;5026425;28;20727;-67
2024/02/10 07:19:35;;;;;;;3.05;2.38;;;;;;;;;;5036567;28;20072;-66
2024/02/10 07:22:01;;;;;;;2.92;2.15;;;;;;;;;;5035168;28;20034;-66
2024/02/10 07:24:27;;;;;;;3.47;2.30;;;;;;;;;;5032505;28;20040;-65
2024/02/10 07:26:56;;;;;;;3.78;1.92;;;;;;;;;;5035492;28;20049;-66
2024/02/10 07:29:24;;;;;;;2.72;1.90;;;;;;;;;;5041673;28;20037;-66
2024/02/10 07:31:50;;;;;;;2.40;1.60;;;;;;;;;;5033596;28;20040;-67
2024/02/10 07:34:17;;;;;;;2.05;1.42;;;;;;;;;;5036461;28;20037;-68
2024/02/10 07:36:43;;;;;;;1.70;1.38;;;;;;;;;;5043170;28;20049;-66
2024/02/10 07:39:09;;;;;;;;;;;;;;;;;;5037681;28;20500;-66
2024/02/10 07:41:38;;;;;;;3.40;0.90;;;;;;;;;;5036400;28;20016;-67
2024/02/10 07:44:06;;;;;;;1.42;1.05;;;;;;;;;;5030216;28;20041;-67
2024/02/10 07:46:34;;;;;;;3.08;1.00;;;;;;;;;;5038927;28;20045;-66
2024/02/10 07:49:06;;;;;;;1.55;1.10;;;;;;;;;;5037667;28;20040;-67
2024/02/10 07:51:32;;;;;;;1.10;0.93;;;;;;;;;;5038038;28;20090;-67
2024/02/10 07:53:59;;;;;;;1.10;0.88;;;;;;;;;;5034002;28;20048;-65
2024/02/10 07:56:28;;;;;;;1.63;1.10;;;;;;;;;;5037092;28;20139;-67
2024/02/10 07:58:58;;;;;;;1.15;0.77;;;;;;;;;;5037093;28;20060;-67
2024/02/10 08:01:25;;;;;;;1.58;0.70;;;;;;;;;;5037980;28;20084;-67
2024/02/10 08:03:54;;;;;;;1.30;0.95;;;;;;;;;;5034692;28;20036;-67
2024/02/10 08:06:21;;;;;;;2.10;0.73;;;;;;;;;;5028410;28;20457;-68
2024/02/10 08:08:48;;;;;;;4.13;1.05;;;;;;;;;;5035560;28;20048;-67
2024/02/10 08:11:14;;;;;;;1.80;1.30;;;;;;;;;;5040236;28;20048;-68
2024/02/10 08:13:41;;;;;;;;;;;;;;;;;;5036195;28;20033;-67
2024/02/10 08:16:07;;;;;;;2.17;1.50;;;;;;;;;;5029584;28;20900;-66
2024/02/10 08:18:33;;;;;;;2.67;1.58;;;;;;;;;;5037975;28;20594;-67
2024/02/10 08:20:59;;;;;;;;;;;;;;;;;;5041376;28;20049;-67
2024/02/10 08:23:26;;;;;;;1.85;1.23;;;;;;;;;;5037563;28;19917;-67
2024/02/10 08:25:54;;;;;;;3.75;1.52;;;;;;;;;;5040119;28;20041;-66
2024/02/10 08:28:20;;;;;;;1.67;1.13;;;;;;;;;;5034430;28;20107;-66
2024/02/10 08:30:46;;;;;;;2.88;1.30;;;;;;;;;;5043079;28;20044;-68
2024/02/10 08:33:13;;;;;;;4.30;1.20;;;;;;;;;;5041322;28;20090;-66
2024/02/10 08:35:40;;;;;;;2.05;1.13;;;;;;;;;;5044179;28;20045;-67
2024/02/10 08:38:06;;;;;;;1.60;1.05;;;;;;;;;;5034983;28;20774;-69
2024/02/10 08:40:32;;;;;;;1.70;1.30;;;;;;;;;;5040838;28;20033;-68
2024/02/10 08:42:59;;;;;;;;;;;;;;;;;;5032784;28;20056;-68
2024/02/10 08:45:26;;;;;;;0.77;0.63;;;;;;;;;;5040781;28;19932;-69
2024/02/10 08:47:52;;;;;;;1.40;0.80;;;;;;;;;;5034614;28;20064;-68
2024/02/10 08:50:18;;;;;;;;;;;;;;;;;;5040731;28;20030;-68
2024/02/10 08:52:50;;;;;;;1.15;0.90;;;;;;;;;;5029060;28;19986;-68
2024/02/10 08:55:16;;;;;;;0.93;0.73;;;;;;;;;;5037538;28;20122;-67
2024/02/10 08:57:43;;;;;;;;;;;;;;;;;;5042286;28;20521;-66
2024/02/10 09:00:11;;;;;;;1.02;0.80;;;;;;;;;;5041740;28;19928;-69
2024/02/10 09:02:37;;;;;;;0.80;0.70;;;;;;;;;;5041931;28;20060;-66
2024/02/10 09:05:06;;;;;;;5.03;0.88;;;;;;;;;;5033319;28;20096;-68
2024/02/10 09:07:32;;;;;;;1.30;1.10;;;;;;;;;;5034382;28;20045;-67
2024/02/10 09:09:58;;;;;;;1.15;0.93;;;;;;;;;;5039125;28;20087;-66
2024/02/10 09:12:24;;;;;;;1.65;1.23;;;;;;;;;;5043976;28;20052;-69
2024/02/10 09:14:51;;;;;;;;;;;;;;;;;;5038456;28;20037;-66
2024/02/10 09:17:17;;;;;;;2.00;1.65;;;;;;;;;;5037341;28;19987;-68
2024/02/10 09:19:45;;;;;;;2.13;1.58;;;;;;;;;;5032079;28;20676;-66
2024/02/10 09:22:12;;;;;;;2.17;1.70;;;;;;;;;;5037707;28;20074;-67
2024/02/10 09:24:40;;;;;;;2.88;1.60;;;;;;;;;;5040294;28;20041;-65
2024/02/10 09:27:09;;;;;;;2.88;2.05;;;;;;;;;;5037922;28;20053;-65
2024/02/10 09:29:35;;;;;;;2.92;1.80;;;;;;;;;;5040805;28;20064;-64
2024/02/10 09:32:01;;;;;;;2.42;1.90;;;;;;;;;;5026493;28;20033;-65
2024/02/10 09:34:27;;;;;;;;;;;;;;;;;;5038337;28;20045;-65
2024/02/10 09:36:53;;;;;;;4.13;3.05;;;;;;;;;;5033374;28;19932;-66
2024/02/10 09:39:20;;;;;;;3.50;2.55;;;;;;;;;;5036913;28;20049;-62
2024/02/10 09:41:47;;;;;;;5.95;3.95;;;;;;;;;;5036445;28;20043;-65
2024/02/10 09:44:15;;;;;;;4.15;2.88;;;;;;;;;;5037417;28;20025;-64
2024/02/10 09:46:42;;;;;;;3.88;2.63;;;;;;;;;;5026444;28;20049;-66
2024/02/10 09:49:09;;;;;;;6.13;3.10;;;;;;;;;;5036433;28;20045;-65
2024/02/10 09:51:40;;;;;;;3.90;3.03;;;;;;;;;;5039450;28;20072;-64
2024/02/10 09:54:06;;;;;;;6.07;3.33;;;;;;;;;;5038099;28;20041;-63
2024/02/10 09:56:33;;;;;;;3.80;2.60;;;;;;;;;;5029193;28;20064;-65
2024/02/10 09:58:59;;;;;;;5.93;2.08;;;;;;;;;;5034440;28;20143;-68
2024/02/10 10:01:32;;;;;;;2.00;1.42;;;;;;;;;;5038874;28;20036;-66
2024/02/10 10:04:00;;;;;;;2.47;2.00;;;;;;;;;;5059699;28;20072;-67
2024/02/10 10:06:26;;;;;;;4.35;2.25;;;;;;;;;;5061488;28;20040;-66
2024/02/10 10:08:53;;;;;;;2.80;1.90;;;;;;;;;;5060909;28;20874;-67
2024/02/10 10:11:21;;;;;;;2.88;2.20;;;;;;;;;;5056053;28;20378;-70
2024/02/10 10:13:47;;;;;;;3.33;2.53;;;;;;;;;;5059426;28;20048;-68
2024/02/10 10:16:14;;;;;;;4.13;2.40;;;;;;;;;;5054099;28;20047;-67
2024/02/10 10:18:41;;;;;;;3.70;2.80;;;;;;;;;;5059555;28;20082;-67
2024/02/10 10:21:12;;;;;;;5.30;3.40;;;;;;;;;;5058476;28;20049;-67
2024/02/10 10:23:38;;;;;;;4.97;3.08;;;;;;;;;;5054558;28;20087;-69
2024/02/10 10:26:05;;;;;;;;;;;;;;;;;;5054366;28;20080;-66
2024/02/10 10:28:31;;;;;;;;;;;;;;;;;;5056754;28;19916;-67
2024/02/10 10:30:58;;;;;;;5.83;2.53;;;;;;;;;;5046701;28;20117;-67
2024/02/10 10:33:26;;;;;;;4.00;3.08;;;;;;;;;;5043006;28;20040;-66
2024/02/10 10:35:54;;;;;;;5.05;3.38;;;;;;;;;;5048306;28;20039;-66
2024/02/10 10:38:23;;;;;;;3.92;2.83;;;;;;;;;;5043442;28;20076;-67
2024/02/10 10:40:51;;;;;;;7.15;4.30;;;;;;;;;;5046643;28;20660;-66
2024/02/10 10:43:19;;;;;;;6.50;3.58;;;;;;;;;;5042956;28;20041;-69
2024/02/10 10:45:46;;;;;;;5.18;3.75;;;;;;;;;;5039920;28;20040;-70
2024/02/10 10:48:12;;;;;;;6.63;4.88;;;;;;;;;;5042102;28;20041;-66
2024/02/10 10:50:39;;;;;;;5.57;4.40;;;;;;;;;;5041761;28;20033;-66
2024/02/10 10:53:07;;;;;;;6.80;5.25;;;;;;;;;;5043728;28;20041;-65
2024/02/10 10:55:53;;;;;;;6.47;4.80;;;;;;;;;;5039402;28;20040;-66
2024/02/10 10:58:26;;;;;;;6.32;5.05;;;;;;;;;;5039993;28;20040;-66
2024/02/10 11:00:52;;;;;;;7.18;5.40;;;;;;;;;;5038413;28;20040;-67
2024/02/10 11:03:19;;;;;;;5.75;4.38;;;;;;;;;;5034753;28;20040;-66
2024/02/10 11:05:49;;;;;;;5.55;4.40;;;;;;;;;;5044271;28;20057;-66
2024/02/10 11:08:25;;;;;;;7.97;5.30;;;;;;;;;;5041529;28;20048;-68
2024/02/10 11:10:57;;;;;;;6.43;5.00;;;;;;;;;;5038805;28;20346;-67
2024/02/10 11:13:24;;;;;;;8.23;5.97;;;;;;;;;;5033763;28;20408;-66
2024/02/10 11:16:12;;;;;;;8.35;5.72;;;;;;;;;;5044130;28;20044;-67
2024/02/10 11:18:38;;;;;;;7.15;5.53;;;;;;;;;;5040480;28;20147;-66
2024/02/10 11:21:26;;;;;;;6.32;4.78;;;;;;;;;;5044480;28;20040;-67
2024/02/10 11:24:02;;;;;;;5.53;4.35;;;;;;;;;;5043295;28;20580;-67
2024/02/10 11:26:29;;;;;;;7.18;4.72;;;;;;;;;;5038533;28;20071;-67
2024/02/10 11:29:01;;;;;;;6.10;4.50;;;;;;;;;;5041982;28;20514;-68
2024/02/10 11:31:33;;;;;;;12.57;4.93;;;;;;;;;;5045926;28;20036;-68
2024/02/10 11:34:16;;;;;;;5.97;4.70;;;;;;;;;;5043488;28;20424;-67
2024/02/10 11:36:53;;;;;;;7.13;4.15;;;;;;;;;;5035016;28;20045;-69
2024/02/10 11:39:23;;;;;;;5.03;3.65;;;;;;;;;;5044759;28;20435;-68
2024/02/10 11:41:49;;;;;;;4.88;3.70;;;;;;;;;;5038608;28;20521;-65
2024/02/10 11:44:16;;;;;;;5.32;4.03;;;;;;;;;;5041047;28;20029;-65
2024/02/10 11:46:42;;;;;;;8.30;4.72;;;;;;;;;;5039590;28;20685;-67
2024/02/10 11:49:10;;;;;;;7.47;3.78;;;;;;;;;;5041325;28;20107;-67
2024/02/10 11:51:36;;;;;;;6.65;4.43;;;;;;;;;;5040250;28;20091;-67
2024/02/10 11:54:02;;;;;;;;;;;;;;;;;;5033488;28;20629;-64
2024/02/10 11:56:33;;;;;;;8.10;4.00;;;;;;;;;;5037747;28;19925;-66
2024/02/10 11:58:59;;;;;;;6.55;5.07;;;;;;;;;;5042465;28;20298;-67
2024/02/10 12:01:27;;;;;;;4.55;3.90;;;;;;;;;;5045268;28;20044;-67
2024/02/10 12:03:53;;;;;;;5.57;3.40;;;;;;;;;;5042125;28;20040;-66
2024/02/10 12:06:21;;;;;;;4.18;3.30;;;;;;;;;;5041538;28;20103;-66
2024/02/10 12:08:47;;;;;;;5.40;3.75;;;;;;;;;;5042054;28;20558;-67
2024/02/10 12:11:16;;;;;;;3.22;2.58;;;;;;;;;;5034110;28;20840;-67
2024/02/10 12:13:43;;;;;;;3.45;2.30;;;;;;;;;;5039613;28;20041;-67
2024/02/10 12:16:11;;;;;;;3.05;1.42;;;;;;;;;;5041989;28;20037;-64
2024/02/10 12:18:39;;;;;;;4.78;1.40;;;;;;;;;;5045466;28;20039;-65
2024/02/10 12:21:05;;;;;;;2.25;1.20;;;;;;;;;;5049265;28;20044;-67
2024/02/10 12:23:32;;;;;;;3.60;1.55;;;;;;;;;;5045951;28;20125;-66
2024/02/10 12:26:01;;;;;;;3.80;1.15;;;;;;;;;;5046107;28;20485;-67
2024/02/10 12:28:28;;;;;;;3.65;1.60;;;;;;;;;;5040009;28;20564;-67
2024/02/10 12:30:54;;;;;;;1.00;0.90;;;;;;;;;;5043357;28;20044;-66
2024/02/10 12:33:22;;;;;;;1.45;0.90;;;;;;;;;;5043717;28;20087;-67
2024/02/10 12:35:51;;;;;;;1.17;0.80;;;;;;;;;;5042966;28;20041;-66
2024/02/10 12:38:18;;;;;;;2.13;1.10;;;;;;;;;;5036493;28;20025;-65
2024/02/10 12:40:44;;;;;;;0.80;0.80;;;;;;;;;;5046568;28;20056;-65
2024/02/10 12:43:13;;;;;;;1.30;1.00;;;;;;;;;;5040250;28;20396;-67
2024/02/10 12:45:47;;;;;;;1.77;0.88;;;;;;;;;;5042882;28;20053;-70
2024/02/10 12:48:15;;;;;;;1.23;1.08;;;;;;;;;;5029642;28;20052;-67
2024/02/10 12:50:43;;;;;;;1.48;0.90;;;;;;;;;;5041707;28;20140;-69
2024/02/10 12:53:09;;;;;;;3.38;1.10;;;;;;;;;;5036523;28;20489;-67
2024/02/10 12:55:38;;;;;;;2.47;1.52;;;;;;;;;;5041015;28;20050;-66
2024/02/10 12:58:05;;;;;;;2.88;1.15;;;;;;;;;;5035906;28;20549;-65
2024/02/10 13:00:31;;;;;;;1.85;1.40;;;;;;;;;;5043716;28;20444;-67
2024/02/10 13:02:59;;;;;;;;;;;;;;;;;;5037571;28;20090;-65
2024/02/10 13:05:27;;;;;;;2.10;1.23;;;;;;;;;;5038928;28;19920;-63
2024/02/10 13:07:58;;;;;;;3.00;1.38;;;;;;;;;;5028831;28;20049;-65
2024/02/10 13:10:25;;;;;;;3.45;1.70;;;;;;;;;;5041255;28;20052;-65
2024/02/10 13:12:58;;;;;;;3.30;1.40;;;;;;;;;;5039450;28;20412;-65
2024/02/10 13:15:25;;;;;;;2.35;1.70;;;;;;;;;;5045428;28;20094;-66
2024/02/10 13:17:55;;;;;;;5.07;1.65;;;;;;;;;;5041167;28;20056;-65
2024/02/10 13:20:22;;;;;;;2.28;1.52;;;;;;;;;;5043419;28;20047;-66
2024/02/10 13:22:49;;;;;;;5.25;1.75;;;;;;;;;;5036078;28;20037;-65
2024/02/10 13:25:15;;;;;;;2.50;1.30;;;;;;;;;;5038331;28;20098;-66
2024/02/10 13:27:42;;;;;;;1.67;1.10;;;;;;;;;;5035466;28;20045;-72
2024/02/10 13:30:09;;;;;;;2.38;1.40;;;;;;;;;;5042409;28;20033;-66
2024/02/10 13:32:39;;;;;;;2.45;1.52;;;;;;;;;;5054820;28;20048;-67
2024/02/10 13:35:05;;;;;;;1.67;1.30;;;;;;;;;;5055822;28;20036;-65
2024/02/10 14:02:58;;;;;;;3.58;1.33;;;;;;;;;;5055521;28;20492;-66
2024/02/10 14:04:56;;;;;;;1.70;0.98;;;;;;;;;;5053655;28;20076;-66
2024/02/10 14:12:40;;;;;;;3.38;1.13;;;;;;;;;;5053163;28;20131;-66
2024/02/10 14:15:16;;;;;;;2.15;1.02;;;;;;;;;;5054830;28;20111;-66
2024/02/10 14:17:47;;;;;;;2.90;1.13;;;;;;;;;;5052506;28;20051;-67
2024/02/10 14:20:22;;;;;;;3.20;1.05;;;;;;;;;;5056485;28;20048;-69
2024/02/10 14:22:48;;;;;;;1.65;1.10;;;;;;;;;;5052715;28;20067;-66
2024/02/10 14:25:23;;;;;;;2.85;1.55;;;;;;;;;;5057096;28;20072;-67
2024/02/10 14:28:00;;;;;;;5.78;1.30;;;;;;;;;;5047440;28;20134;-67
2024/02/10 14:30:37;;;;;;;3.83;1.20;;;;;;;;;;5054498;28;20681;-67
2024/02/10 14:33:12;;;;;;;1.67;1.20;;;;;;;;;;5052929;28;20505;-68
2024/02/10 14:35:49;;;;;;;2.13;1.30;;;;;;;;;;5057277;28;20063;-67
2024/02/10 14:38:27;;;;;;;1.85;1.13;;;;;;;;;;5053040;28;20056;-67
2024/02/10 14:40:58;;;;;;;3.67;1.40;;;;;;;;;;5059287;28;20041;-67
2024/02/10 14:43:27;;;;;;;1.13;0.90;;;;;;;;;;5052764;28;20090;-66
2024/02/10 14:45:53;;;;;;;1.40;1.20;;;;;;;;;;5057057;28;20055;-67
2024/02/10 14:48:22;;;;;;;;;;;;;;;;;;5044365;28;20041;-66